createdAt,value
2018-07-09T00:00:26.209Z,0.00
2018-07-09T00:01:32.693Z,0.00
2018-07-09T00:02:39.176Z,0.00
2018-07-09T00:03:45.661Z,0.00
2018-07-09T00:04:52.160Z,0.00
2018-07-09T00:05:58.651Z,0.00
2018-07-09T00:07:05.621Z,0.00
2018-07-09T00:08:11.624Z,0.00
2018-07-09T00:09:19.107Z,0.00
2018-07-09T00:10:24.600Z,0.00
2018-07-09T00:11:31.091Z,0.00
2018-07-09T00:12:37.571Z,0.00
2018-07-09T00:13:44.359Z,0.00
2018-07-09T00:14:50.547Z,0.00
2018-07-09T00:15:57.026Z,0.00
2018-07-09T00:17:03.504Z,0.00
2018-07-09T00:18:09.976Z,0.00
2018-07-09T00:19:16.471Z,0.00
2018-07-09T00:20:22.991Z,0.00
2018-07-09T00:21:29.435Z,0.00
2018-07-09T00:22:35.911Z,0.00
2018-07-09T00:23:42.688Z,0.00
2018-07-09T00:24:48.861Z,0.00
2018-07-09T00:25:55.355Z,0.00
2018-07-09T00:27:01.828Z,0.00
2018-07-09T00:28:08.306Z,0.00
2018-07-09T00:29:14.895Z,0.00
2018-07-09T00:30:21.264Z,0.00
2018-07-09T00:31:27.742Z,0.00
2018-07-09T00:32:34.222Z,0.00
2018-07-09T00:33:40.686Z,0.00
2018-07-09T00:34:47.166Z,0.00
2018-07-09T00:35:53.649Z,0.00
2018-07-09T00:37:00.119Z,0.00
2018-07-09T00:38:06.600Z,0.00
2018-07-09T00:39:13.081Z,0.00
2018-07-09T00:40:19.559Z,0.00
2018-07-09T00:41:26.040Z,0.00
2018-07-09T00:42:32.500Z,0.00
2018-07-09T00:43:38.978Z,0.00
2018-07-09T00:44:45.462Z,0.00
2018-07-09T00:45:51.949Z,0.00
2018-07-09T00:46:58.426Z,0.00
2018-07-09T00:48:04.912Z,0.00
2018-07-09T00:49:11.363Z,0.00
2018-07-09T00:50:17.842Z,0.00
2018-07-09T00:51:24.314Z,0.00
2018-07-09T00:52:30.783Z,0.00
2018-07-09T00:53:37.263Z,0.00
2018-07-09T00:54:43.741Z,0.00
2018-07-09T00:55:50.216Z,0.00
2018-07-09T00:56:56.694Z,0.00
2018-07-09T00:58:03.168Z,0.00
2018-07-09T00:59:09.638Z,0.00
2018-07-09T01:00:16.119Z,0.00
2018-07-09T01:01:22.579Z,0.00
2018-07-09T01:02:29.051Z,0.00
2018-07-09T01:03:35.525Z,0.00
2018-07-09T01:04:42.004Z,0.00
2018-07-09T01:05:48.489Z,0.00
2018-07-09T01:06:54.956Z,0.00
2018-07-09T01:08:01.420Z,0.00
2018-07-09T01:09:07.889Z,0.00
2018-07-09T01:10:14.363Z,0.00
2018-07-09T01:11:20.920Z,0.00
2018-07-09T01:12:27.286Z,0.00
2018-07-09T01:13:33.764Z,0.00
2018-07-09T01:14:40.230Z,0.00
2018-07-09T01:15:46.715Z,0.00
2018-07-09T01:16:53.178Z,0.00
2018-07-09T01:17:59.647Z,0.00
2018-07-09T01:19:06.108Z,0.00
2018-07-09T01:20:12.589Z,0.00
2018-07-09T01:21:19.056Z,0.00
2018-07-09T01:22:25.512Z,0.00
2018-07-09T01:23:31.982Z,0.00
2018-07-09T01:24:38.448Z,0.00
2018-07-09T01:25:44.930Z,0.00
2018-07-09T01:26:51.395Z,0.00
2018-07-09T01:27:57.861Z,0.00
2018-07-09T01:29:04.331Z,0.00
2018-07-09T01:30:11.291Z,0.00
2018-07-09T01:31:17.264Z,0.00
2018-07-09T01:32:23.723Z,0.00
2018-07-09T01:33:30.190Z,0.00
2018-07-09T01:34:36.652Z,0.00
2018-07-09T01:35:43.122Z,0.00
2018-07-09T01:36:49.580Z,0.00
2018-07-09T01:37:56.031Z,0.00
2018-07-09T01:39:02.492Z,0.00
2018-07-09T01:40:08.965Z,0.00
2018-07-09T01:41:15.421Z,0.00
2018-07-09T01:42:21.874Z,0.00
2018-07-09T01:43:28.336Z,0.00
2018-07-09T01:44:34.913Z,0.00
2018-07-09T01:45:41.263Z,0.00
2018-07-09T01:46:47.721Z,0.00
2018-07-09T01:47:54.171Z,0.00
2018-07-09T01:49:00.628Z,0.00
2018-07-09T01:50:07.088Z,0.00
2018-07-09T01:51:13.560Z,0.00
2018-07-09T01:52:20.005Z,0.00
2018-07-09T01:53:26.457Z,0.00
2018-07-09T01:54:32.915Z,0.00
2018-07-09T01:55:39.376Z,0.00
2018-07-09T01:56:45.822Z,0.00
2018-07-09T01:57:52.274Z,0.00
2018-07-09T01:58:58.751Z,0.00
2018-07-09T02:00:05.192Z,0.00
2018-07-09T02:01:11.651Z,0.00
2018-07-09T02:02:18.093Z,0.00
2018-07-09T02:03:24.548Z,0.00
2018-07-09T02:04:32.003Z,0.00
2018-07-09T02:05:37.466Z,0.00
2018-07-09T02:06:43.902Z,0.00
2018-07-09T02:07:50.359Z,0.00
2018-07-09T02:08:56.905Z,0.00
2018-07-09T02:10:03.274Z,0.00
2018-07-09T02:11:09.711Z,0.00
2018-07-09T02:12:16.159Z,0.00
2018-07-09T02:13:22.603Z,0.00
2018-07-09T02:14:29.051Z,0.00
2018-07-09T02:15:35.507Z,0.00
2018-07-09T02:16:41.953Z,0.00
2018-07-09T02:17:48.401Z,0.00
2018-07-09T02:18:54.840Z,0.00
2018-07-09T02:20:01.295Z,0.00
2018-07-09T02:21:07.738Z,0.00
2018-07-09T02:22:14.179Z,0.00
2018-07-09T02:23:20.622Z,0.00
2018-07-09T02:24:27.070Z,0.00
2018-07-09T02:25:33.502Z,0.00
2018-07-09T02:26:39.955Z,0.00
2018-07-09T02:27:46.401Z,0.00
2018-07-09T02:28:52.831Z,0.00
2018-07-09T02:29:59.272Z,0.00
2018-07-09T02:31:05.729Z,0.00
2018-07-09T02:32:12.159Z,0.00
2018-07-09T02:33:18.608Z,0.00
2018-07-09T02:34:25.060Z,0.00
2018-07-09T02:35:31.478Z,0.00
2018-07-09T02:36:37.927Z,0.00
2018-07-09T02:37:44.365Z,0.00
2018-07-09T02:38:50.917Z,0.00
2018-07-09T02:39:57.236Z,0.00
2018-07-09T02:41:03.685Z,0.00
2018-07-09T02:42:10.114Z,0.00
2018-07-09T02:43:16.571Z,4.00
2018-07-09T02:44:22.991Z,4.00
2018-07-09T02:45:29.433Z,4.00
2018-07-09T02:46:35.882Z,0.00
2018-07-09T02:47:42.309Z,4.00
2018-07-09T02:48:48.763Z,4.00
2018-07-09T02:49:55.188Z,4.00
2018-07-09T02:51:01.633Z,4.00
2018-07-09T02:52:08.080Z,4.00
2018-07-09T02:53:14.998Z,8.00
2018-07-09T02:54:20.939Z,8.00
2018-07-09T02:55:27.392Z,12.00
2018-07-09T02:56:33.839Z,12.00
2018-07-09T02:57:40.261Z,16.00
2018-07-09T02:58:46.686Z,16.00
2018-07-09T02:59:53.140Z,20.00
2018-07-09T03:01:00.678Z,24.00
2018-07-09T03:02:05.997Z,28.00
2018-07-09T03:03:12.482Z,32.00
2018-07-09T03:04:18.859Z,36.00
2018-07-09T03:05:25.289Z,40.00
2018-07-09T03:06:31.729Z,48.00
2018-07-09T03:07:38.154Z,56.00
2018-07-09T03:08:44.583Z,64.00
2018-07-09T03:09:51.023Z,68.00
2018-07-09T03:10:57.457Z,80.00
2018-07-09T03:12:03.881Z,92.00
2018-07-09T03:13:10.306Z,104.00
2018-07-09T03:14:16.735Z,116.00
2018-07-09T03:15:23.156Z,128.00
2018-07-09T03:16:29.596Z,144.00
2018-07-09T03:17:36.030Z,160.00
2018-07-09T03:18:42.649Z,176.00
2018-07-09T03:19:48.885Z,196.00
2018-07-09T03:20:55.322Z,216.00
2018-07-09T03:22:01.745Z,236.00
2018-07-09T03:23:08.164Z,256.00
2018-07-09T03:24:14.596Z,280.00
2018-07-09T03:25:21.029Z,308.00
2018-07-09T03:26:27.454Z,336.00
2018-07-09T03:27:33.875Z,364.00
2018-07-09T03:28:40.302Z,396.00
2018-07-09T03:29:46.740Z,428.00
2018-07-09T03:30:53.159Z,456.00
2018-07-09T03:31:59.597Z,492.00
2018-07-09T03:33:06.012Z,528.00
2018-07-09T03:34:12.441Z,564.00
2018-07-09T03:35:18.872Z,604.00
2018-07-09T03:36:25.308Z,640.00
2018-07-09T03:37:31.730Z,684.00
2018-07-09T03:38:38.155Z,720.00
2018-07-09T03:39:44.589Z,760.00
2018-07-09T03:40:51.021Z,804.00
2018-07-09T03:41:57.443Z,844.00
2018-07-09T03:43:03.875Z,888.00
2018-07-09T03:44:10.293Z,932.00
2018-07-09T03:45:16.725Z,976.00
2018-07-09T03:46:23.161Z,1024.00
2018-07-09T03:47:29.578Z,1064.00
2018-07-09T03:48:36.033Z,1104.00
2018-07-09T03:49:42.439Z,1152.00
2018-07-09T03:50:48.867Z,1196.00
2018-07-09T03:51:55.294Z,1244.00
2018-07-09T03:53:01.718Z,1296.00
2018-07-09T03:54:08.144Z,1340.00
2018-07-09T03:55:14.559Z,1392.00
2018-07-09T03:56:20.985Z,1436.00
2018-07-09T03:57:27.422Z,1476.00
2018-07-09T03:58:33.838Z,1524.00
2018-07-09T03:59:40.271Z,1568.00
2018-07-09T04:00:46.706Z,1612.00
2018-07-09T04:01:53.136Z,1652.00
2018-07-09T04:02:59.750Z,1692.00
2018-07-09T04:04:05.979Z,1728.00
2018-07-09T04:05:12.413Z,1768.00
2018-07-09T04:06:18.838Z,1804.00
2018-07-09T04:07:25.275Z,1844.00
2018-07-09T04:08:31.718Z,1884.00
2018-07-09T04:09:38.117Z,1920.00
2018-07-09T04:10:44.561Z,1952.00
2018-07-09T04:11:50.983Z,1984.00
2018-07-09T04:12:57.402Z,2008.00
2018-07-09T04:14:03.838Z,2032.00
2018-07-09T04:15:10.258Z,2060.00
2018-07-09T04:16:16.700Z,2092.00
2018-07-09T04:17:23.121Z,2132.00
2018-07-09T04:18:29.539Z,2180.00
2018-07-09T04:19:35.976Z,2236.00
2018-07-09T04:20:42.394Z,2288.00
2018-07-09T04:21:48.907Z,2340.00
2018-07-09T04:22:55.264Z,2372.00
2018-07-09T04:24:02.671Z,2404.00
2018-07-09T04:25:08.121Z,2436.00
2018-07-09T04:26:14.561Z,2472.00
2018-07-09T04:27:20.974Z,2508.00
2018-07-09T04:28:27.397Z,2536.00
2018-07-09T04:29:33.829Z,2568.00
2018-07-09T04:30:40.259Z,2600.00
2018-07-09T04:31:46.745Z,2632.00
2018-07-09T04:32:53.119Z,2660.00
2018-07-09T04:33:59.544Z,2692.00
2018-07-09T04:35:05.988Z,2720.00
2018-07-09T04:36:12.425Z,2752.00
2018-07-09T04:37:18.858Z,2776.00
2018-07-09T04:38:25.272Z,2804.00
2018-07-09T04:39:31.712Z,2832.00
2018-07-09T04:40:38.137Z,2860.00
2018-07-09T04:41:44.588Z,2896.00
2018-07-09T04:42:51.006Z,2920.00
2018-07-09T04:43:57.458Z,2924.00
2018-07-09T04:45:03.881Z,2952.00
2018-07-09T04:46:10.316Z,2988.00
2018-07-09T04:47:16.762Z,3048.00
2018-07-09T04:48:23.177Z,3080.00
2018-07-09T04:49:29.632Z,3096.00
2018-07-09T04:50:36.051Z,3104.00
2018-07-09T04:51:42.502Z,3100.00
2018-07-09T04:52:48.942Z,3148.00
2018-07-09T04:53:55.365Z,3192.00
2018-07-09T04:55:01.808Z,3192.00
2018-07-09T04:56:08.256Z,3164.00
2018-07-09T04:57:14.699Z,3204.00
2018-07-09T04:58:21.131Z,3312.00
2018-07-09T04:59:27.569Z,3448.00
2018-07-09T05:00:34.012Z,3568.00
2018-07-09T05:01:40.963Z,3696.00
2018-07-09T05:02:46.914Z,3836.00
2018-07-09T05:03:53.348Z,4020.00
2018-07-09T05:04:59.802Z,4184.00
2018-07-09T05:06:06.243Z,4392.00
2018-07-09T05:07:12.702Z,4628.00
2018-07-09T05:08:19.142Z,4852.00
2018-07-09T05:09:25.592Z,5028.00
2018-07-09T05:10:32.043Z,5056.00
2018-07-09T05:11:38.500Z,5052.00
2018-07-09T05:12:44.971Z,5020.00
2018-07-09T05:13:51.425Z,5032.00
2018-07-09T05:14:57.874Z,5028.00
2018-07-09T05:16:04.345Z,4924.00
2018-07-09T05:17:10.902Z,4764.00
2018-07-09T05:18:17.264Z,4536.00
2018-07-09T05:19:23.734Z,4296.00
2018-07-09T05:20:30.206Z,4012.00
2018-07-09T05:21:36.657Z,3768.00
2018-07-09T05:22:43.125Z,3524.00
2018-07-09T05:23:49.585Z,3368.00
2018-07-09T05:24:56.049Z,3284.00
2018-07-09T05:26:02.530Z,3268.00
2018-07-09T05:27:08.965Z,3360.00
2018-07-09T05:28:15.607Z,3360.00
2018-07-09T05:29:21.879Z,3304.00
2018-07-09T05:30:28.327Z,3376.00
2018-07-09T05:31:35.188Z,3520.00
2018-07-09T05:32:41.293Z,3632.00
2018-07-09T05:33:47.714Z,3656.00
2018-07-09T05:34:54.169Z,3660.00
2018-07-09T05:36:00.612Z,3668.00
2018-07-09T05:37:07.082Z,3676.00
2018-07-09T05:38:13.534Z,3684.00
2018-07-09T05:39:19.986Z,3684.00
2018-07-09T05:40:26.444Z,3688.00
2018-07-09T05:41:32.906Z,3684.00
2018-07-09T05:42:39.369Z,3684.00
2018-07-09T05:43:45.822Z,3688.00
2018-07-09T05:44:52.287Z,3692.00
2018-07-09T05:45:58.756Z,3696.00
2018-07-09T05:47:05.215Z,3704.00
2018-07-09T05:48:11.672Z,3712.00
2018-07-09T05:49:18.130Z,3728.00
2018-07-09T05:50:24.590Z,3740.00
2018-07-09T05:51:31.059Z,3752.00
2018-07-09T05:52:37.522Z,3768.00
2018-07-09T05:53:43.985Z,3792.00
2018-07-09T05:54:50.907Z,3812.00
2018-07-09T05:55:56.908Z,3848.00
2018-07-09T05:57:03.383Z,3896.00
2018-07-09T05:58:09.846Z,3960.00
2018-07-09T05:59:16.315Z,4032.00
2018-07-09T06:00:22.903Z,4124.00
2018-07-09T06:01:29.264Z,4240.00
2018-07-09T06:02:35.736Z,4392.00
2018-07-09T06:03:42.201Z,4588.00
2018-07-09T06:04:48.680Z,4832.00
2018-07-09T06:05:55.160Z,5116.00
2018-07-09T06:07:01.639Z,5432.00
2018-07-09T06:08:08.114Z,5776.00
2018-07-09T06:09:14.599Z,6116.00
2018-07-09T06:10:21.076Z,6424.00
2018-07-09T06:11:27.591Z,6604.00
2018-07-09T06:12:34.063Z,6696.00
2018-07-09T06:13:40.594Z,6748.00
2018-07-09T06:14:47.048Z,6728.00
2018-07-09T06:15:53.540Z,6676.00
2018-07-09T06:17:00.034Z,6592.00
2018-07-09T06:18:06.952Z,6460.00
2018-07-09T06:19:13.032Z,6264.00
2018-07-09T06:20:19.525Z,5968.00
2018-07-09T06:21:26.036Z,5672.00
2018-07-09T06:22:32.541Z,5464.00
2018-07-09T06:23:39.029Z,5332.00
2018-07-09T06:24:45.537Z,5288.00
2018-07-09T06:25:52.032Z,5120.00
2018-07-09T06:26:58.538Z,5000.00
2018-07-09T06:28:05.064Z,4848.00
2018-07-09T06:29:11.533Z,4684.00
2018-07-09T06:30:19.030Z,4472.00
2018-07-09T06:31:24.542Z,4352.00
2018-07-09T06:32:31.045Z,4204.00
2018-07-09T06:33:37.540Z,4124.00
2018-07-09T06:34:44.043Z,4056.00
2018-07-09T06:35:50.534Z,3956.00
2018-07-09T06:36:57.042Z,3932.00
2018-07-09T06:38:03.547Z,3928.00
2018-07-09T06:39:10.047Z,3956.00
2018-07-09T06:40:16.542Z,4020.00
2018-07-09T06:41:23.039Z,4092.00
2018-07-09T06:42:29.530Z,4072.00
2018-07-09T06:43:36.080Z,4136.00
2018-07-09T06:44:42.550Z,4184.00
2018-07-09T06:45:49.043Z,4228.00
2018-07-09T06:46:55.554Z,4276.00
2018-07-09T06:48:02.068Z,4320.00
2018-07-09T06:49:08.576Z,4344.00
2018-07-09T06:50:15.089Z,4356.00
2018-07-09T06:51:21.600Z,4376.00
2018-07-09T06:52:28.120Z,4392.00
2018-07-09T06:53:34.645Z,4408.00
2018-07-09T06:54:41.162Z,4424.00
2018-07-09T06:55:47.686Z,4432.00
2018-07-09T06:56:54.203Z,4444.00
2018-07-09T06:58:00.734Z,4452.00
2018-07-09T06:59:07.263Z,4464.00
2018-07-09T07:00:13.777Z,4476.00
2018-07-09T07:01:20.309Z,4500.00
2018-07-09T07:02:26.848Z,4512.00
2018-07-09T07:03:33.372Z,4528.00
2018-07-09T07:04:39.903Z,4560.00
2018-07-09T07:05:46.434Z,4592.00
2018-07-09T07:06:52.975Z,4628.00
2018-07-09T07:07:59.507Z,4664.00
2018-07-09T07:09:06.130Z,4744.00
2018-07-09T07:10:12.566Z,4896.00
2018-07-09T07:11:19.099Z,5064.00
2018-07-09T07:12:25.629Z,5084.00
2018-07-09T07:13:32.183Z,5044.00
2018-07-09T07:14:38.713Z,4996.00
2018-07-09T07:15:45.250Z,5012.00
2018-07-09T07:16:51.789Z,5016.00
2018-07-09T07:17:58.336Z,5084.00
2018-07-09T07:19:05.868Z,5112.00
2018-07-09T07:20:11.409Z,5136.00
2018-07-09T07:21:17.952Z,5136.00
2018-07-09T07:22:24.483Z,5116.00
2018-07-09T07:23:31.045Z,5044.00
2018-07-09T07:24:37.621Z,5036.00
2018-07-09T07:25:44.583Z,5036.00
2018-07-09T07:26:50.674Z,5012.00
2018-07-09T07:27:57.229Z,4996.00
2018-07-09T07:29:03.773Z,5044.00
2018-07-09T07:30:10.312Z,5112.00
2018-07-09T07:31:16.872Z,5236.00
2018-07-09T07:32:23.423Z,5352.00
2018-07-09T07:33:29.996Z,5652.00
2018-07-09T07:34:36.549Z,5968.00
2018-07-09T07:35:43.081Z,5976.00
2018-07-09T07:36:49.653Z,5776.00
2018-07-09T07:37:56.190Z,5796.00
2018-07-09T07:39:03.757Z,5860.00
2018-07-09T07:40:09.311Z,5880.00
2018-07-09T07:41:15.876Z,5852.00
2018-07-09T07:42:22.440Z,5920.00
2018-07-09T07:43:29.007Z,5888.00
2018-07-09T07:44:35.568Z,5764.00
2018-07-09T07:45:42.138Z,5684.00
2018-07-09T07:46:48.705Z,5748.00
2018-07-09T07:47:55.282Z,5796.00
2018-07-09T07:49:01.864Z,5784.00
2018-07-09T07:50:08.515Z,5756.00
2018-07-09T07:51:15.015Z,5788.00
2018-07-09T07:52:21.604Z,5904.00
2018-07-09T07:53:28.183Z,5900.00
2018-07-09T07:54:34.764Z,5828.00
2018-07-09T07:55:41.354Z,5800.00
2018-07-09T07:56:47.950Z,5820.00
2018-07-09T07:57:54.529Z,5868.00
2018-07-09T07:59:01.323Z,5880.00
2018-07-09T08:00:07.711Z,5928.00
2018-07-09T08:01:14.312Z,5872.00
2018-07-09T08:02:20.884Z,5868.00
2018-07-09T08:03:27.489Z,5868.00
2018-07-09T08:04:34.078Z,5884.00
2018-07-09T08:05:40.658Z,5916.00
2018-07-09T08:06:47.272Z,5912.00
2018-07-09T08:07:53.847Z,5876.00
2018-07-09T08:09:00.441Z,5832.00
2018-07-09T08:10:07.023Z,5872.00
2018-07-09T08:11:13.621Z,5996.00
2018-07-09T08:13:29.008Z,6148.00
2018-07-09T08:14:33.401Z,6148.00
2018-07-09T08:15:40.083Z,6116.00
2018-07-09T08:16:46.584Z,6048.00
2018-07-09T08:17:53.188Z,6016.00
2018-07-09T08:18:59.797Z,6044.00
2018-07-09T08:20:06.372Z,6152.00
2018-07-09T08:21:12.970Z,6256.00
2018-07-09T08:22:19.572Z,6316.00
2018-07-09T08:23:26.184Z,6260.00
2018-07-09T08:24:32.786Z,6208.00
2018-07-09T08:25:39.427Z,6188.00
2018-07-09T08:26:45.982Z,6220.00
2018-07-09T08:27:52.576Z,6256.00
2018-07-09T08:28:59.180Z,6208.00
2018-07-09T08:30:05.782Z,6172.00
2018-07-09T08:31:12.512Z,6072.00
2018-07-09T08:32:18.986Z,6088.00
2018-07-09T08:33:25.603Z,6188.00
2018-07-09T08:34:32.207Z,6320.00
2018-07-09T08:35:38.907Z,6472.00
2018-07-09T08:36:45.425Z,6632.00
2018-07-09T08:37:52.058Z,6392.00
2018-07-09T08:38:58.654Z,6236.00
2018-07-09T08:40:05.254Z,6152.00
2018-07-09T08:41:11.876Z,6248.00
2018-07-09T08:42:18.494Z,6460.00
2018-07-09T08:43:26.121Z,6564.00
2018-07-09T08:44:31.761Z,6228.00
2018-07-09T08:45:38.367Z,6212.00
2018-07-09T08:46:44.989Z,6328.00
2018-07-09T08:47:52.098Z,6416.00
2018-07-09T08:48:58.223Z,6384.00
2018-07-09T08:50:04.850Z,6352.00
2018-07-09T08:51:11.455Z,6340.00
2018-07-09T08:52:18.087Z,6240.00
2018-07-09T08:53:24.705Z,6176.00
2018-07-09T08:54:31.327Z,6280.00
2018-07-09T08:55:37.941Z,6460.00
2018-07-09T08:56:44.563Z,6576.00
2018-07-09T08:57:51.205Z,6560.00
2018-07-09T08:58:57.825Z,6544.00
2018-07-09T09:00:04.439Z,6508.00
2018-07-09T09:01:11.061Z,6524.00
2018-07-09T09:02:17.698Z,6696.00
2018-07-09T09:03:24.320Z,6768.00
2018-07-09T09:04:30.951Z,6736.00
2018-07-09T09:05:37.581Z,6688.00
2018-07-09T09:06:44.211Z,6660.00
2018-07-09T09:07:50.840Z,6796.00
2018-07-09T09:08:57.484Z,6856.00
2018-07-09T09:10:05.121Z,6804.00
2018-07-09T09:11:10.750Z,6744.00
2018-07-09T09:12:17.382Z,6724.00
2018-07-09T09:13:24.020Z,6768.00
2018-07-09T09:14:31.666Z,6912.00
2018-07-09T09:15:37.301Z,6948.00
2018-07-09T09:16:43.933Z,6844.00
2018-07-09T09:17:50.569Z,6864.00
2018-07-09T09:18:57.222Z,7152.00
2018-07-09T09:20:03.855Z,7268.00
2018-07-09T09:21:10.496Z,7112.00
2018-07-09T09:22:17.135Z,7016.00
2018-07-09T09:23:23.783Z,6928.00
2018-07-09T09:24:30.428Z,6876.00
2018-07-09T09:25:37.144Z,6732.00
2018-07-09T09:26:43.709Z,6292.00
2018-07-09T09:27:50.356Z,6088.00
2018-07-09T09:28:57.024Z,5816.00
2018-07-09T09:30:03.660Z,5680.00
2018-07-09T09:31:10.332Z,5684.00
2018-07-09T09:32:16.951Z,5864.00
2018-07-09T09:33:23.611Z,6016.00
2018-07-09T09:34:30.255Z,6156.00
2018-07-09T09:35:36.896Z,6116.00
2018-07-09T09:36:43.550Z,6056.00
2018-07-09T09:37:50.203Z,5964.00
2018-07-09T09:38:56.849Z,5904.00
2018-07-09T09:40:03.503Z,5840.00
2018-07-09T09:41:10.144Z,5756.00
2018-07-09T09:42:16.787Z,5744.00
2018-07-09T09:43:23.439Z,5804.00
2018-07-09T09:44:30.095Z,5876.00
2018-07-09T09:45:36.757Z,5760.00
2018-07-09T09:46:43.627Z,5612.00
2018-07-09T09:47:51.041Z,5300.00
2018-07-09T09:48:56.703Z,5220.00
2018-07-09T09:50:03.357Z,5224.00
2018-07-09T09:51:10.014Z,5168.00
2018-07-09T09:52:16.669Z,5148.00
2018-07-09T09:53:23.309Z,5164.00
2018-07-09T09:54:29.979Z,5188.00
2018-07-09T09:55:36.622Z,5184.00
2018-07-09T09:56:43.280Z,5168.00
2018-07-09T09:57:50.428Z,5160.00
2018-07-09T09:58:56.595Z,5140.00
2018-07-09T10:00:03.262Z,5132.00
2018-07-09T10:01:09.919Z,5124.00
2018-07-09T10:02:16.570Z,5152.00
2018-07-09T10:03:23.238Z,5164.00
2018-07-09T10:04:29.910Z,5156.00
2018-07-09T10:05:36.559Z,5176.00
2018-07-09T10:06:43.226Z,5188.00
2018-07-09T10:07:49.882Z,5204.00
2018-07-09T10:08:56.539Z,5232.00
2018-07-09T10:10:03.207Z,5244.00
2018-07-09T10:11:09.862Z,5256.00
2018-07-09T10:12:16.523Z,5292.00
2018-07-09T10:13:23.272Z,5312.00
2018-07-09T10:14:29.862Z,5356.00
2018-07-09T10:15:36.522Z,5460.00
2018-07-09T10:16:43.211Z,5528.00
2018-07-09T10:17:49.855Z,5552.00
2018-07-09T10:18:56.529Z,5572.00
2018-07-09T10:20:03.207Z,5600.00
2018-07-09T10:21:09.865Z,5632.00
2018-07-09T10:22:16.524Z,5652.00
2018-07-09T10:23:23.319Z,5656.00
2018-07-09T10:24:29.876Z,5648.00
2018-07-09T10:25:36.555Z,5676.00
2018-07-09T10:26:43.229Z,5712.00
2018-07-09T10:27:49.899Z,5768.00
2018-07-09T10:28:56.582Z,5828.00
2018-07-09T10:30:03.266Z,5896.00
2018-07-09T10:31:09.943Z,5984.00
2018-07-09T10:32:16.628Z,6068.00
2018-07-09T10:33:23.317Z,6196.00
2018-07-09T10:34:30.010Z,6352.00
2018-07-09T10:35:36.689Z,6508.00
2018-07-09T10:36:43.383Z,6732.00
2018-07-09T10:37:50.076Z,7004.00
2018-07-09T10:38:56.801Z,7388.00
2018-07-09T10:40:03.466Z,7728.00
2018-07-09T10:41:10.158Z,7892.00
2018-07-09T10:42:16.892Z,7976.00
2018-07-09T10:43:23.566Z,8052.00
2018-07-09T10:44:30.279Z,8056.00
2018-07-09T10:45:36.975Z,8036.00
2018-07-09T10:46:43.684Z,8072.00
2018-07-09T10:47:50.387Z,8016.00
2018-07-09T10:48:57.087Z,7944.00
2018-07-09T10:50:04.793Z,7956.00
2018-07-09T10:51:10.497Z,7976.00
2018-07-09T10:52:17.207Z,8040.00
2018-07-09T10:53:23.930Z,8176.00
2018-07-09T10:54:30.635Z,8280.00
2018-07-09T10:55:37.352Z,8400.00
2018-07-09T10:56:44.067Z,8628.00
2018-07-09T10:57:50.795Z,9044.00
2018-07-09T10:58:57.493Z,9648.00
2018-07-09T11:00:04.215Z,10456.00
2018-07-09T11:01:10.925Z,11464.00
2018-07-09T11:02:17.641Z,12856.00
2018-07-09T11:03:24.387Z,14484.00
2018-07-09T11:04:31.144Z,16244.00
2018-07-09T11:05:38.365Z,17672.00
2018-07-09T11:06:44.650Z,18816.00
2018-07-09T11:07:51.461Z,19168.00
2018-07-09T11:08:58.275Z,19104.00
2018-07-09T11:10:05.140Z,18912.00
2018-07-09T11:11:12.034Z,18624.00
2018-07-09T11:12:18.987Z,17940.00
2018-07-09T11:13:25.984Z,17272.00
2018-07-09T11:14:33.053Z,16884.00
2018-07-09T11:15:40.144Z,16172.00
2018-07-09T11:16:47.301Z,15900.00
2018-07-09T11:17:54.520Z,35616.00
2018-07-09T11:19:01.794Z,89376.00
2018-07-09T11:20:09.127Z,110976.00
2018-07-09T11:21:16.502Z,112320.00
2018-07-09T11:22:23.911Z,110560.00
2018-07-09T11:23:31.367Z,115232.00
2018-07-09T11:24:38.863Z,114560.00
2018-07-09T11:25:46.380Z,118944.00
2018-07-09T11:26:53.938Z,118400.00
2018-07-09T11:28:01.524Z,116800.00
2018-07-09T11:29:09.166Z,116544.00
2018-07-09T11:30:16.796Z,119488.00
2018-07-09T11:31:24.458Z,120480.00
2018-07-09T11:32:32.156Z,119168.00
2018-07-09T11:33:39.900Z,117792.00
2018-07-09T11:34:47.660Z,114752.00
2018-07-09T11:35:55.479Z,108224.00
2018-07-09T11:37:03.225Z,111616.00
2018-07-09T11:38:11.039Z,117600.00
2018-07-09T11:39:18.877Z,120128.00
2018-07-09T11:40:26.735Z,125536.00
2018-07-09T11:41:34.607Z,129504.00
2018-07-09T11:42:42.489Z,115328.00
2018-07-09T11:43:50.395Z,108832.00
2018-07-09T11:44:58.281Z,121664.00
2018-07-09T11:46:06.169Z,118496.00
2018-07-09T11:47:14.079Z,109536.00
2018-07-09T11:48:21.989Z,114240.00
2018-07-09T11:49:29.897Z,125760.00
2018-07-09T11:50:37.919Z,87936.00
2018-07-09T11:51:45.725Z,89440.00
2018-07-09T11:52:53.591Z,99040.00
2018-07-09T11:54:01.440Z,118720.00
2018-07-09T11:55:09.330Z,117952.00
2018-07-09T11:56:17.184Z,105728.00
2018-07-09T11:57:25.694Z,105088.00
2018-07-09T11:58:32.984Z,70528.00
2018-07-09T11:59:40.783Z,57472.00
2018-07-09T12:00:48.568Z,79360.00
2018-07-09T12:01:56.339Z,75456.00
2018-07-09T12:03:04.023Z,99200.00
2018-07-09T12:04:11.749Z,85536.00
2018-07-09T12:05:19.480Z,111936.00
2018-07-09T12:06:27.215Z,119200.00
2018-07-09T12:07:35.008Z,114656.00
2018-07-09T12:08:42.836Z,122208.00
2018-07-09T12:09:50.685Z,112256.00
2018-07-09T12:10:58.582Z,122848.00
2018-07-09T12:12:06.499Z,126592.00
2018-07-09T12:13:14.454Z,98080.00
2018-07-09T12:14:22.369Z,116832.00
2018-07-09T12:15:30.299Z,103072.00
2018-07-09T12:16:38.197Z,89120.00
2018-07-09T12:17:46.066Z,99872.00
2018-07-09T12:18:53.935Z,102464.00
2018-07-09T12:20:01.817Z,107968.00
2018-07-09T12:21:09.700Z,113248.00
2018-07-09T12:22:17.609Z,113024.00
2018-07-09T12:23:25.548Z,119776.00
2018-07-09T12:24:33.560Z,122048.00
2018-07-09T12:25:41.523Z,124640.00
2018-07-09T12:26:49.611Z,125760.00
2018-07-09T12:27:57.563Z,126656.00
2018-07-09T12:29:05.703Z,125664.00
2018-07-09T12:30:13.685Z,124384.00
2018-07-09T12:31:21.892Z,119616.00
2018-07-09T12:32:29.868Z,120256.00
2018-07-09T12:33:37.824Z,124384.00
2018-07-09T12:34:46.258Z,125600.00
2018-07-09T12:35:54.368Z,118368.00
2018-07-09T12:37:01.996Z,116416.00
2018-07-09T12:38:10.029Z,118176.00
2018-07-09T12:39:18.080Z,115776.00
2018-07-09T12:40:26.121Z,117856.00
2018-07-09T12:41:34.159Z,112960.00
2018-07-09T12:42:42.178Z,88864.00
2018-07-09T12:43:50.228Z,115168.00
2018-07-09T12:44:58.175Z,114496.00
2018-07-09T12:46:06.190Z,117568.00
2018-07-09T12:47:15.187Z,111904.00
2018-07-09T12:48:22.198Z,109536.00
2018-07-09T12:49:30.202Z,111072.00
2018-07-09T12:50:38.204Z,110592.00
2018-07-09T12:51:46.210Z,108544.00
2018-07-09T12:52:54.193Z,108160.00
2018-07-09T12:54:02.198Z,106336.00
2018-07-09T12:55:10.191Z,105792.00
2018-07-09T12:56:18.197Z,104448.00
2018-07-09T12:57:26.172Z,108512.00
2018-07-09T12:58:34.147Z,102880.00
2018-07-09T12:59:42.125Z,110880.00
2018-07-09T13:00:50.111Z,120704.00
2018-07-09T13:01:58.093Z,118752.00
2018-07-09T13:03:06.066Z,105120.00
2018-07-09T13:04:15.036Z,104960.00
2018-07-09T13:05:21.990Z,105024.00
2018-07-09T13:06:29.931Z,112160.00
2018-07-09T13:07:37.890Z,115648.00
2018-07-09T13:08:45.855Z,113632.00
2018-07-09T13:09:53.925Z,117536.00
2018-07-09T13:11:01.901Z,115232.00
2018-07-09T13:12:09.904Z,111424.00
2018-07-09T13:13:17.766Z,108992.00
2018-07-09T13:14:25.750Z,108544.00
2018-07-09T13:15:33.726Z,103680.00
2018-07-09T13:16:41.684Z,96032.00
2018-07-09T13:17:49.615Z,86720.00
2018-07-09T13:18:57.533Z,87936.00
2018-07-09T13:20:05.427Z,98144.00
2018-07-09T13:21:13.301Z,86752.00
2018-07-09T13:22:21.159Z,96128.00
2018-07-09T13:23:29.022Z,100416.00
2018-07-09T13:24:36.870Z,110272.00
2018-07-09T13:25:44.750Z,114624.00
2018-07-09T13:26:52.636Z,115744.00
2018-07-09T13:28:00.546Z,107104.00
2018-07-09T13:29:08.426Z,76288.00
2018-07-09T13:30:16.292Z,47744.00
2018-07-09T13:31:24.111Z,79968.00
2018-07-09T13:32:31.890Z,57024.00
2018-07-09T13:33:39.663Z,73280.00
2018-07-09T13:34:47.405Z,78880.00
2018-07-09T13:35:55.463Z,73120.00
2018-07-09T13:37:02.874Z,75328.00
2018-07-09T13:38:10.594Z,69280.00